Time;durP1;ratioP1;P1;durP2;ratioP2;P2;SDS_P1;SDS_P2;PMS_P1;PMS_P2;Temp;Humidity;BMP_temperature;BMP_pressure;BME280_temperature;BME280_humidity;BME280_pressure;Samples;Min_cycle;Max_cycle;Signal;HPM_P1;HPM_P2
2021/07/17 00:02:09;;;;;;;;;;;;;;;22.42;63.74;99726.06;4995509;28;20387;-73
2021/07/17 00:04:34;;;;;;;;;;;;;;;22.37;63.98;99724.63;4995527;28;19914;-71
2021/07/17 00:07:06;;;;;;;;;;;;;;;22.01;64.84;99722.09;4995823;28;19921;-72
2021/07/17 00:09:33;;;;;;;;;;;;;;;22.22;64.08;99721.44;4995546;28;19960;-73
2021/07/17 00:12:05;;;;;;;;;;;;;;;22.26;63.97;99723.38;4995226;28;19918;-72
2021/07/17 00:14:30;;;;;;;;;;;;;;;22.16;64.41;99722.47;4995444;28;19922;-72
2021/07/17 00:17:01;;;;;;;;;;;;;;;22.23;64.37;99725.06;4995946;28;19918;-72
2021/07/17 00:19:27;;;;;;;;;;;;;;;22.06;64.86;99729.25;4995893;28;19936;-72
2021/07/17 00:21:57;;;;;;;;;;;;;;;22.01;65.07;99724.13;4995479;28;20353;-71
2021/07/17 00:24:26;;;;;;;;;;;;;;;22.00;65.55;99728.19;4995214;28;19914;-72
2021/07/17 00:26:53;;;;;;;;;;;;;;;21.87;66.17;99723.31;4995493;28;20344;-72
2021/07/17 00:29:22;;;;;;;;;;;;;;;21.73;67.44;99720.91;4995651;28;19913;-73
2021/07/17 00:31:54;;;;;;;;;;;;;;;21.73;67.46;99708.78;4995047;28;19917;-71
2021/07/17 00:34:25;;;;;;;;;;;;;;;21.70;68.06;99704.84;4995092;28;19914;-71
2021/07/17 00:37:13;;;;;;;;;;;;;;;21.89;68.48;99701.03;4995779;28;19914;-71
2021/07/17 00:39:38;;;;;;;;;;;;;;;21.79;68.91;99707.81;4994946;28;19913;-71
2021/07/17 00:42:09;;;;;;;;;;;;;;;21.81;69.13;99699.66;4994854;28;19960;-71
2021/07/17 00:44:41;;;;;;;;;;;;;;;21.79;68.53;99696.47;4995364;28;20264;-72
2021/07/17 00:47:13;;;;;;;;;;;;;;;21.78;69.03;99694.09;4994773;28;20000;-73
2021/07/17 00:49:39;;;;;;;;;;;;;;;21.75;68.96;99681.63;4994695;28;19914;-71
2021/07/17 00:52:04;;;;;;;;;;;;;;;21.79;69.18;99688.00;4994577;28;19920;-70
2021/07/17 00:54:36;;;;;;;;;;;;;;;21.69;69.50;99680.63;4995136;28;19913;-70
2021/07/17 00:57:02;;;;;;;;;;;;;;;21.67;69.52;99671.75;4994823;28;19960;-70
2021/07/17 00:59:28;;;;;;;;;;;;;;;21.40;70.17;99675.78;4994439;28;19914;-71
2021/07/17 01:01:57;;;;;;;;;;;;;;;21.36;71.04;99669.47;4994295;28;19937;-72
2021/07/17 01:04:26;;;;;;;;;;;;;;;21.49;70.73;99665.84;4995391;28;19914;-72
2021/07/17 01:06:59;;;;;;;;;;;;;;;21.49;70.92;99666.66;4994328;28;19920;-71
2021/07/17 01:09:28;;;;;;;;;;;;;;;21.45;70.90;99669.56;4994918;28;19979;-71
2021/07/17 01:11:58;;;;;;;;;;;;;;;21.45;71.33;99666.75;4994449;28;20020;-71
2021/07/17 01:14:26;;;;;;;;;;;;;;;21.51;71.24;99661.31;4994833;28;20079;-71
2021/07/17 01:16:55;;;;;;;;;;;;;;;21.50;70.86;99658.94;4994195;28;19968;-73
2021/07/17 01:19:25;;;;;;;;;;;;;;;21.51;70.46;99652.03;4994203;28;19913;-73
2021/07/17 01:21:58;;;;;;;;;;;;;;;21.45;68.80;99655.41;4994026;28;19914;-72
2021/07/17 01:24:24;;;;;;;;;;;;;;;21.42;68.13;99645.03;4994103;28;20026;-73
2021/07/17 01:26:53;;;;;;;;;;;;;;;21.40;68.22;99644.66;4994347;28;19914;-73
2021/07/17 01:29:24;;;;;;;;;;;;;;;21.38;68.12;99643.53;4994486;28;20337;-71
2021/07/17 01:31:49;;;;;;;;;;;;;;;21.35;67.86;99645.22;4994422;28;20350;-73
2021/07/17 01:34:20;;;;;;;;;;;;;;;21.40;67.58;99647.50;4993858;28;19917;-73
2021/07/17 01:36:49;;;;;;;;;;;;;;;21.51;66.65;99637.88;4994154;28;19917;-72
2021/07/17 01:39:17;;;;;;;;;;;;;;;21.52;66.43;99636.63;4993857;28;19914;-72
2021/07/17 01:41:45;;;;;;;;;;;;;;;21.45;66.59;99632.78;4993702;28;19921;-74
2021/07/17 01:44:16;;;;;;;;;;;;;;;21.36;66.91;99624.19;4993720;28;19914;-72
2021/07/17 01:46:45;;;;;;;;;;;;;;;21.35;67.22;99631.06;4994206;28;19920;-74
2021/07/17 01:49:13;;;;;;;;;;;;;;;21.49;66.69;99626.22;4994132;28;20357;-71
2021/07/17 01:51:41;;;;;;;;;;;;;;;21.43;67.36;99628.81;4993838;28;19914;-72
2021/07/17 01:54:09;;;;;;;;;;;;;;;21.58;67.79;99630.00;4993365;28;20314;-73
2021/07/17 01:56:38;;;;;;;;;;;;;;;21.56;67.98;99635.28;4993693;28;20389;-72
2021/07/17 01:59:09;;;;;;;;;;;;;;;21.61;67.76;99636.78;4993477;28;19921;-73
2021/07/17 02:01:37;;;;;;;;;;;;;;;21.55;67.64;99642.19;4993410;28;20341;-72
2021/07/17 02:04:03;;;;;;;;;;;;;;;21.50;67.64;99633.47;4993293;28;19913;-71
2021/07/17 02:06:28;;;;;;;;;;;;;;;21.49;67.37;99637.56;4993278;28;19920;-71
2021/07/17 02:08:57;;;;;;;;;;;;;;;21.54;66.76;99628.50;4993350;28;19992;-72
2021/07/17 02:11:25;;;;;;;;;;;;;;;21.47;66.61;99640.84;4993662;28;20284;-71
2021/07/17 02:13:53;;;;;;;;;;;;;;;21.42;66.23;99639.34;4992812;28;19918;-71
2021/07/17 02:16:22;;;;;;;;;;;;;;;21.49;66.30;99629.06;4993249;28;19914;-71
2021/07/17 02:18:48;;;;;;;;;;;;;;;21.43;66.49;99635.28;4993441;28;20008;-70
2021/07/17 02:21:16;;;;;;;;;;;;;;;21.47;67.04;99635.19;4993157;28;19957;-72
2021/07/17 02:23:42;;;;;;;;;;;;;;;21.49;67.37;99640.38;4993042;28;19920;-72
2021/07/17 02:26:08;;;;;;;;;;;;;;;21.39;67.03;99637.41;4993824;28;19918;-71
2021/07/17 02:28:36;;;;;;;;;;;;;;;21.40;66.42;99636.16;4993067;28;19914;-71
2021/07/17 02:31:03;;;;;;;;;;;;;;;21.38;66.60;99638.66;4993274;28;19959;-72
2021/07/17 02:33:31;;;;;;;;;;;;;;;21.38;66.12;99627.34;4993517;28;19992;-71
2021/07/17 02:35:59;;;;;;;;;;;;;;;21.45;66.17;99629.94;4992932;28;19918;-72
2021/07/17 02:38:24;;;;;;;;;;;;;;;21.46;66.12;99633.56;4992975;28;20004;-71
2021/07/17 02:40:56;;;;;;;;;;;;;;;21.52;66.26;99626.13;4992969;28;20012;-71
2021/07/17 02:43:23;;;;;;;;;;;;;;;21.49;66.22;99626.22;4992889;28;19914;-71
2021/07/17 02:45:53;;;;;;;;;;;;;;;21.50;66.41;99616.50;4993203;28;19913;-72
2021/07/17 02:48:19;;;;;;;;;;;;;;;21.59;66.04;99616.63;4993003;28;19921;-73
2021/07/17 02:50:47;;;;;;;;;;;;;;;21.56;66.21;99614.69;4993368;28;19914;-73
2021/07/17 02:53:18;;;;;;;;;;;;;;;21.55;66.15;99613.09;4993069;28;20345;-73
2021/07/17 02:55:49;;;;;;;;;;;;;;;21.63;65.88;99614.47;4992998;28;19921;-72
2021/07/17 02:58:17;;;;;;;;;;;;;;;21.55;65.72;99619.56;4993511;28;20012;-73
2021/07/17 03:00:53;;;;;;;;;;;;;;;21.50;65.75;99622.94;4992960;28;19913;-73
2021/07/17 03:03:22;;;;;;;;;;;;;;;21.45;66.13;99621.47;4993409;28;19913;-71
2021/07/17 03:05:50;;;;;;;;;;;;;;;21.52;65.88;99620.47;4992918;28;19918;-72
2021/07/17 03:08:20;;;;;;;;;;;;;;;21.52;66.13;99622.47;4992800;28;19968;-72
2021/07/17 03:10:48;;;;;;;;;;;;;;;21.45;66.68;99627.13;4992762;28;19914;-71
2021/07/17 03:13:16;;;;;;;;;;;;;;;21.51;66.53;99624.53;4992567;28;19968;-72
2021/07/17 03:15:42;;;;;;;;;;;;;;;21.51;66.57;99623.72;4993110;28;19918;-71
2021/07/17 03:18:13;;;;;;;;;;;;;;;21.42;66.75;99624.41;4992746;28;20440;-72
2021/07/17 03:20:41;;;;;;;;;;;;;;;21.33;66.91;99622.25;4993062;28;19914;-71
2021/07/17 03:23:11;;;;;;;;;;;;;;;21.27;66.89;99621.19;4992703;28;19918;-73
2021/07/17 03:25:37;;;;;;;;;;;;;;;21.19;67.05;99619.81;4992728;28;19914;-72
2021/07/17 03:28:05;;;;;;;;;;;;;;;21.13;66.86;99618.78;4996549;28;19920;-73
2021/07/17 03:30:35;;;;;;;;;;;;;;;21.07;67.26;99617.75;4996199;28;19920;-72
2021/07/17 03:33:03;;;;;;;;;;;;;;;21.10;67.46;99625.34;4996130;28;20387;-72
2021/07/17 03:35:34;;;;;;;;;;;;;;;21.15;67.20;99608.59;4995997;28;19996;-71
2021/07/17 03:38:01;;;;;;;;;;;;;;;21.22;67.21;99613.25;4996550;28;19920;-72
2021/07/17 03:40:29;;;;;;;;;;;;;;;21.32;67.12;99619.88;4995974;28;19914;-72
2021/07/17 03:42:57;;;;;;;;;;;;;;;21.22;67.46;99621.75;4996354;28;20356;-72
2021/07/17 03:45:25;;;;;;;;;;;;;;;21.21;67.61;99611.69;4995924;28;19964;-72
2021/07/17 03:47:51;;;;;;;;;;;;;;;21.16;67.57;99615.06;4995552;28;19914;-71
2021/07/17 03:50:19;;;;;;;;;;;;;;;21.13;67.34;99616.72;4996036;28;20025;-72
2021/07/17 03:52:50;;;;;;;;;;;;;;;21.19;66.99;99619.81;4995744;28;20008;-73
2021/07/17 03:55:21;;;;;;;;;;;;;;;21.14;67.25;99612.66;4995417;28;19914;-73
2021/07/17 03:57:46;;;;;;;;;;;;;;;21.12;67.24;99615.16;4996024;28;19921;-72
2021/07/17 04:00:12;;;;;;;;;;;;;;;21.17;66.91;99610.97;4995675;28;20353;-72
2021/07/17 04:02:42;;;;;;;;;;;;;;;21.12;67.21;99611.53;4995457;28;19921;-73
2021/07/17 04:05:10;;;;;;;;;;;;;;;21.12;67.10;99614.34;4996013;28;20321;-72
2021/07/17 04:07:36;;;;;;;;;;;;;;;21.22;66.67;99616.09;4995571;28;19925;-71
2021/07/17 04:10:09;;;;;;;;;;;;;;;21.25;66.46;99614.38;4996562;28;19921;-73
2021/07/17 04:12:37;;;;;;;;;;;;;;;21.27;66.48;99604.22;4995067;28;19924;-73
2021/07/17 04:15:04;;;;;;;;;;;;;;;21.51;65.83;99595.44;4979489;28;20004;-72
2021/07/17 04:17:34;;;;;;;;;;;;;;;21.98;64.50;99589.88;4995782;28;20404;-71
2021/07/17 04:20:05;;;;;;;;;;;;;;;22.41;62.88;99582.78;4995222;28;19913;-72
2021/07/17 04:22:33;;;;;;;;;;;;;;;22.83;61.32;99583.28;4995127;28;19914;-72
2021/07/17 04:25:05;;;;;;;;;;;;;;;23.20;60.11;99583.56;4995113;28;20000;-71
2021/07/17 04:27:36;;;;;;;;;;;;;;;23.58;58.93;99582.50;4995086;28;19920;-73
2021/07/17 04:30:05;;;;;;;;;;;;;;;23.94;57.31;99579.81;4994797;28;20000;-73
2021/07/17 04:32:33;;;;;;;;;;;;;;;24.40;56.44;99582.00;4995723;28;20408;-71
2021/07/17 04:35:03;;;;;;;;;;;;;;;24.79;55.17;99578.19;4994882;28;19913;-69
2021/07/17 04:37:30;;;;;;;;;;;;;;;25.14;53.73;99579.91;4994474;28;19953;-71
2021/07/17 04:40:01;;;;;;;;;;;;;;;25.46;52.74;99584.91;4995448;28;19918;-72
2021/07/17 04:42:26;;;;;;;;;;;;;;;25.85;51.93;99583.03;4994678;28;20024;-71
2021/07/17 04:44:56;;;;;;;;;;;;;;;26.24;50.29;99579.47;4994751;28;19949;-72
2021/07/17 04:47:24;;;;;;;;;;;;;;;26.67;49.64;99583.78;4994767;28;19957;-73
2021/07/17 04:49:52;;;;;;;;;;;;;;;26.77;48.83;99581.63;4994965;28;19918;-72
2021/07/17 04:52:21;;;;;;;;;;;;;;;27.23;48.08;99575.53;4996775;28;20361;-72
2021/07/17 04:54:52;;;;;;;;;;;;;;;27.55;47.12;99583.06;4992447;28;20285;-72
2021/07/17 04:57:21;;;;;;;;;;;;;;;27.44;47.16;99577.19;4994650;28;19914;-73
2021/07/17 04:59:50;;;;;;;;;;;;;;;27.88;46.65;99582.06;4994476;28;20361;-71
2021/07/17 05:02:18;;;;;;;;;;;;;;;27.87;45.98;99586.22;4991299;28;20020;-72
2021/07/17 05:04:46;;;;;;;;;;;;;;;28.39;44.99;99586.41;4994749;28;19921;-72
2021/07/17 05:07:14;;;;;;;;;;;;;;;28.75;43.69;99581.41;4994644;28;19913;-71
2021/07/17 05:09:42;;;;;;;;;;;;;;;28.66;44.15;99582.38;4994882;28;19918;-71
2021/07/17 05:12:11;;;;;;;;;;;;;;;29.19;42.74;99579.06;4997379;28;20360;-71
2021/07/17 05:14:36;;;;;;;;;;;;;;;28.56;43.95;99578.84;4997462;28;20026;-73
2021/07/17 05:17:04;;;;;;;;;;;;;;;29.09;42.93;99574.78;4998028;28;20012;-73
2021/07/17 05:19:35;;;;;;;;;;;;;;;28.86;42.96;99588.03;4997314;28;19920;-72
2021/07/17 05:22:06;;;;;;;;;;;;;;;29.46;42.06;99592.06;4997379;28;20356;-71
2021/07/17 05:24:34;;;;;;;;;;;;;;;29.92;40.82;99598.94;4997527;28;19936;-71
2021/07/17 05:27:02;;;;;;;;;;;;;;;30.09;41.11;99594.09;4997181;28;19913;-72
2021/07/17 05:29:31;;;;;;;;;;;;;;;29.80;41.52;99591.56;4997251;28;19914;-72
2021/07/17 05:31:59;;;;;;;;;;;;;;;29.35;42.04;99591.97;4997204;28;19913;-72
2021/07/17 05:34:30;;;;;;;;;;;;;;;28.78;44.22;99595.50;4997197;28;19913;-73
2021/07/17 05:36:58;;;;;;;;;;;;;;;28.82;43.72;99592.44;4996806;28;19932;-72
2021/07/17 05:39:23;;;;;;;;;;;;;;;28.48;44.25;99588.38;4997009;28;19963;-73
2021/07/17 05:41:51;;;;;;;;;;;;;;;27.56;46.68;99586.72;4997319;28;20303;-71
2021/07/17 05:44:19;;;;;;;;;;;;;;;27.07;48.24;99586.16;4996733;28;19924;-72
2021/07/17 05:46:49;;;;;;;;;;;;;;;27.67;47.05;99589.75;4997604;28;19915;-71
2021/07/17 05:49:15;;;;;;;;;;;;;;;27.55;46.91;99588.00;4995939;28;19920;-73
2021/07/17 05:51:46;;;;;;;;;;;;;;;27.89;46.09;99583.63;4996654;28;20015;-72
2021/07/17 05:54:16;;;;;;;;;;;;;;;27.26;47.85;99583.88;4996480;28;19920;-73
2021/07/17 05:56:46;;;;;;;;;;;;;;;27.82;47.59;99581.19;4996549;28;19919;-70
2021/07/17 05:59:12;;;;;;;;;;;;;;;27.61;47.22;99583.94;4996533;28;20014;-72
2021/07/17 06:01:37;;;;;;;;;;;;;;;27.02;49.15;99581.09;4997077;28;19972;-71
2021/07/17 06:04:08;;;;;;;;;;;;;;;26.55;49.73;99585.63;4996425;28;20352;-71
2021/07/17 06:06:33;;;;;;;;;;;;;;;26.68;49.51;99573.16;4996460;28;20305;-73
2021/07/17 06:09:04;;;;;;;;;;;;;;;27.25;47.88;99575.81;4996683;28;19913;-72
2021/07/17 06:11:31;;;;;;;;;;;;;;;27.40;47.51;99570.88;4996821;28;19914;-72
2021/07/17 06:14:02;;;;;;;;;;;;;;;27.44;47.40;99568.63;4993451;28;20395;-71
2021/07/17 06:16:30;;;;;;;;;;;;;;;28.36;45.38;99564.56;4992821;28;20012;-71
2021/07/17 06:18:58;;;;;;;;;;;;;;;27.81;46.63;99565.34;4993149;28;20170;-72
2021/07/17 06:21:26;;;;;;;;;;;;;;;28.29;45.72;99568.59;4994017;28;20323;-73
2021/07/17 06:23:54;;;;;;;;;;;;;;;28.22;45.94;99571.09;4993486;28;20264;-71
2021/07/17 06:26:22;;;;;;;;;;;;;;;28.30;45.59;99580.84;4993151;28;19921;-73
2021/07/17 06:28:48;;;;;;;;;;;;;;;28.27;45.54;99570.38;4993348;28;19913;-71
2021/07/17 06:31:17;;;;;;;;;;;;;;;28.13;45.79;99575.66;4993651;28;20395;-72
2021/07/17 06:33:51;;;;;;;;;;;;;;;28.57;44.78;99574.69;4994990;28;19956;-73
2021/07/17 06:36:16;;;;;;;;;;;;;;;28.70;44.34;99569.38;4993125;28;19975;-72
2021/07/17 06:38:45;;;;;;;;;;;;;;;27.94;45.90;99582.94;4993419;28;20020;-72
2021/07/17 06:41:12;;;;;;;;;;;;;;;27.54;47.31;99581.50;4993001;28;19917;-72
2021/07/17 06:43:40;;;;;;;;;;;;;;;27.67;47.09;99572.59;4993559;28;19914;-72
2021/07/17 06:46:11;;;;;;;;;;;;;;;28.50;44.59;99574.34;4992930;28;19913;-73
2021/07/17 06:48:42;;;;;;;;;;;;;;;29.57;42.69;99579.16;4993467;28;19920;-73
2021/07/17 06:51:13;;;;;;;;;;;;;;;30.18;40.53;99576.72;4993263;28;19939;-71
2021/07/17 06:53:41;;;;;;;;;;;;;;;29.85;41.43;99573.63;4992746;28;19921;-72
2021/07/17 06:56:13;;;;;;;;;;;;;;;29.70;41.81;99582.38;4993279;28;19924;-72
2021/07/17 06:58:41;;;;;;;;;;;;;;;30.31;40.01;99589.81;4992970;28;19918;-72
2021/07/17 07:01:12;;;;;;;;;;;;;;;30.34;39.90;99588.78;4995519;28;19992;-73
2021/07/17 07:03:37;;;;;;;;;;;;;;;29.46;42.36;99579.81;4996659;28;19964;-74
2021/07/17 07:06:06;;;;;;;;;;;;;;;30.01;41.37;99578.66;4996624;28;19917;-72
2021/07/17 07:08:34;;;;;;;;;;;;;;;30.21;40.87;99581.44;4996508;28;19961;-74
2021/07/17 07:10:59;;;;;;;;;;;;;;;31.10;38.41;99583.06;4996823;28;19918;-73
2021/07/17 07:13:27;;;;;;;;;;;;;;;31.48;37.68;99580.78;4996432;28;20319;-72
2021/07/17 07:15:56;;;;;;;;;;;;;;;31.39;37.58;99584.72;4996898;28;19975;-72
2021/07/17 07:18:21;;;;;;;;;;;;;;;30.87;38.41;99584.31;4996360;28;19968;-73
2021/07/17 07:20:49;;;;;;;;;;;;;;;29.73;40.59;99587.88;4996373;28;20000;-73
2021/07/17 07:23:20;;;;;;;;;;;;;;;30.67;38.88;99594.66;4996845;28;19921;-74
2021/07/17 07:25:50;;;;;;;;;;;;;;;31.78;37.00;99581.81;4996310;28;19914;-72
2021/07/17 07:28:18;;;;;;;;;;;;;;;32.07;35.61;99588.34;4996145;28;19914;-72
2021/07/17 07:30:48;;;;;;;;;;;;;;;32.44;35.43;99592.97;4996166;28;19952;-73
2021/07/17 07:33:13;;;;;;;;;;;;;;;31.67;36.76;99590.44;4996444;28;19913;-73
2021/07/17 07:35:44;;;;;;;;;;;;;;;31.99;36.66;99595.94;4996675;28;19976;-73
2021/07/17 07:38:15;;;;;;;;;;;;;;;32.86;34.49;99597.47;4996089;28;19920;-71
2021/07/17 07:40:41;;;;;;;;;;;;;;;32.94;34.63;99597.75;4996346;28;19921;-72
2021/07/17 07:43:10;;;;;;;;;;;;;;;32.82;34.64;99597.78;4996265;28;19914;-72
2021/07/17 07:45:40;;;;;;;;;;;;;;;32.47;35.22;99598.44;4996554;28;20344;-72
2021/07/17 07:48:12;;;;;;;;;;;;;;;31.45;37.12;99593.34;4996421;28;19921;-71
2021/07/17 07:50:43;;;;;;;;;;;;;;;30.82;38.38;99602.31;4995864;28;19920;-72
2021/07/17 07:53:09;;;;;;;;;;;;;;;29.96;40.36;99596.63;4996035;28;19968;-73
2021/07/17 07:55:37;;;;;;;;;;;;;;;29.62;41.10;99593.53;4995711;28;20332;-72
2021/07/17 07:58:02;;;;;;;;;;;;;;;29.16;41.84;99602.19;4995977;28;19913;-72
2021/07/17 08:00:28;;;;;;;;;;;;;;;28.79;42.42;99594.22;4996192;28;20360;-73
2021/07/17 08:02:57;;;;;;;;;;;;;;;28.33;44.99;99597.78;4995438;28;20418;-73
2021/07/17 08:05:25;;;;;;;;;;;;;;;28.10;46.13;99593.03;4995857;28;19918;-72
2021/07/17 08:07:53;;;;;;;;;;;;;;;27.63;47.24;99587.09;4995534;28;19968;-72
2021/07/17 08:10:22;;;;;;;;;;;;;;;27.12;50.14;99581.81;4995687;28;19913;-71
2021/07/17 08:12:50;;;;;;;;;;;;;;;26.62;52.19;99590.94;4994373;28;19918;-73
2021/07/17 08:15:19;;;;;;;;;;;;;;;27.47;50.07;99587.59;4995368;28;19966;-71
2021/07/17 08:17:49;;;;;;;;;;;;;;;28.09;47.77;99586.53;4995643;28;19913;-71
2021/07/17 08:20:16;;;;;;;;;;;;;;;29.29;44.47;99593.19;4995861;28;20304;-72
2021/07/17 08:22:44;;;;;;;;;;;;;;;30.25;41.76;99590.56;4995102;28;19921;-72
2021/07/17 08:25:13;;;;;;;;;;;;;;;30.24;41.04;99589.00;4995227;28;19914;-73
2021/07/17 08:27:40;;;;;;;;;;;;;;;30.73;39.59;99595.50;4995436;28;19917;-73
2021/07/17 08:30:09;;;;;;;;;;;;;;;31.75;37.00;99600.13;4995369;28;20388;-72
2021/07/17 08:32:34;;;;;;;;;;;;;;;31.30;38.53;99591.47;4995336;28;19921;-73
2021/07/17 08:35:02;;;;;;;;;;;;;;;30.47;41.03;99592.00;4995557;28;19914;-73
2021/07/17 08:37:27;;;;;;;;;;;;;;;30.76;40.07;99591.59;4995196;28;20304;-73
2021/07/17 08:39:53;;;;;;;;;;;;;;;30.16;41.25;99579.31;4994740;28;19964;-72
2021/07/17 08:42:21;;;;;;;;;;;;;;;29.44;43.07;99571.72;4994734;28;20268;-74
2021/07/17 08:44:47;;;;;;;;;;;;;;;29.47;42.50;99569.91;4994765;28;20444;-72
2021/07/17 08:47:13;;;;;;;;;;;;;;;29.03;43.03;99576.81;4994654;28;19921;-72
2021/07/17 08:49:39;;;;;;;;;;;;;;;28.44;44.29;99577.13;4978642;28;19918;-74
2021/07/17 08:52:05;;;;;;;;;;;;;;;28.62;43.65;99571.13;4994830;28;19914;-72
2021/07/17 08:54:30;;;;;;;;;;;;;;;28.59;43.70;99574.19;4994986;28;19914;-73
2021/07/17 08:56:57;;;;;;;;;;;;;;;29.05;42.33;99565.63;4995467;28;20284;-73
2021/07/17 08:59:23;;;;;;;;;;;;;;;28.82;42.60;99566.66;4994686;28;19925;-73
2021/07/17 09:01:51;;;;;;;;;;;;;;;29.17;41.98;99566.53;4994619;28;19913;-73
2021/07/17 09:04:26;;;;;;;;;;;;;;;29.29;41.45;99553.84;4994252;28;19918;-72
2021/07/17 09:06:57;;;;;;;;;;;;;;;29.88;41.20;99555.38;4994297;28;19920;-73
2021/07/17 09:09:32;;;;;;;;;;;;;;;30.36;41.91;99551.75;4994350;28;19921;-72
2021/07/17 09:11:58;;;;;;;;;;;;;;;29.64;42.79;99550.78;4995856;28;20328;-73
2021/07/17 09:14:34;;;;;;;;;;;;;;;29.16;43.31;99539.97;4997457;28;20009;-74
2021/07/17 09:17:05;;;;;;;;;;;;;;;28.93;44.42;99546.75;4997431;28;19913;-71
2021/07/17 09:19:36;;;;;;;;;;;;;;;29.27;43.91;99544.22;4995178;28;19940;-71
2021/07/17 09:22:05;;;;;;;;;;;;;;;29.72;43.41;99539.63;4997181;28;19989;-72
2021/07/17 09:24:32;;;;;;;;;;;;;;;29.18;44.87;99534.50;4997403;28;19959;-71
2021/07/17 09:26:59;;;;;;;;;;;;;;;30.20;42.92;99533.16;4997582;28;19921;-74
2021/07/17 09:29:38;;;;;;;;;;;;;;;30.35;42.07;99530.09;4997070;28;19920;-72
2021/07/17 09:32:06;;;;;;;;;;;;;;;30.05;43.16;99536.19;5015124;28;20079;-72
2021/07/17 09:34:37;;;;;;;;;;;;;;;30.36;43.12;99535.34;4996778;28;19917;-71
2021/07/17 09:37:05;;;;;;;;;;;;;;;29.76;43.57;99534.44;4996524;28;19914;-71
2021/07/17 09:39:36;;;;;;;;;;;;;;;30.34;42.52;99531.41;4997450;28;20011;-71
2021/07/17 09:42:08;;;;;;;;;;;;;;;31.50;40.13;99523.56;4997032;28;19914;-72
2021/07/17 09:44:34;;;;;;;;;;;;;;;30.93;40.51;99528.47;4997231;28;20300;-73
2021/07/17 09:47:14;;;;;;;;;;;;;;;31.60;38.93;99521.19;4997092;28;20019;-72
2021/07/17 09:49:42;;;;;;;;;;;;;;;31.34;39.26;99518.59;4996710;28;19956;-73
2021/07/17 09:52:15;;;;;;;;;;;;;;;31.29;40.11;99520.94;4996577;28;19913;-72
2021/07/17 09:55:00;;;;;;;;;;;;;;;31.24;40.46;99518.06;4996813;28;20319;-73
2021/07/17 09:57:31;;;;;;;;;;;;;;;31.96;39.31;99510.69;4980514;28;19920;-73
2021/07/17 10:00:05;;;;;;;;;;;;;;;31.71;38.76;99510.47;4996213;28;19964;-73
2021/07/17 10:02:31;;;;;;;;;;;;;;;32.13;38.45;99510.66;4996971;28;19940;-73
2021/07/17 10:04:59;;;;;;;;;;;;;;;32.16;37.77;99510.34;4996769;28;20284;-72
2021/07/17 10:07:24;;;;;;;;;;;;;;;31.16;39.94;99512.06;4996339;28;19913;-72
2021/07/17 10:09:55;;;;;;;;;;;;;;;30.99;40.40;99508.38;4996344;28;19919;-73
2021/07/17 10:15:04;;;;;;;5.53;3.22;;;;;;;29.27;43.57;99504.88;5164866;27;20489;-72
2021/07/17 10:17:45;;;;;;;6.80;3.60;;;;;;;28.87;45.12;99491.47;5130110;28;20088;-72
2021/07/17 10:20:16;;;;;;;5.32;3.58;;;;;;;29.04;44.15;99500.28;5129936;27;20431;-72
2021/07/17 10:22:47;;;;;;;6.78;4.05;;;;;;;28.47;45.77;99486.66;5130323;28;20027;-71
2021/07/17 10:25:18;;;;;;;5.28;3.50;;;;;;;28.64;45.80;99485.53;5131171;27;20038;-72
2021/07/17 10:27:44;;;;;;;7.25;3.63;;;;;;;28.48;46.11;99485.38;5148239;27;20031;-71
2021/07/17 10:30:11;;;;;;;6.32;3.05;;;;;;;27.98;47.53;99477.72;5147386;27;20517;-72
2021/07/17 10:32:42;;;;;;;3.67;3.28;;;;;;;28.29;46.99;99479.94;5130243;27;20122;-71
2021/07/17 10:35:08;;;;;;;4.10;2.67;;;;;;;28.17;45.64;99478.22;5129619;27;20027;-74
2021/07/17 10:37:36;;;;;;;5.10;2.83;;;;;;;27.91;46.49;99464.66;5129914;27;20049;-73
2021/07/17 10:40:08;;;;;;;3.53;2.70;;;;;;;27.76;46.23;99477.44;5129475;28;20031;-71
2021/07/17 10:42:35;;;;;;;4.00;2.75;;;;;;;28.22;44.95;99473.84;5129922;28;20126;-70
2021/07/17 10:45:00;;;;;;;4.38;2.63;;;;;;;28.24;44.66;99474.16;5112557;28;20031;-72
2021/07/17 10:47:39;;;;;;;5.60;2.70;;;;;;;28.03;45.74;99470.50;5129924;27;20080;-71
2021/07/17 10:50:12;;;;;;;6.07;3.13;;;;;;;28.87;44.07;99468.56;5147039;27;20031;-73
2021/07/17 10:52:43;;;;;;;4.63;3.10;;;;;;;29.36;42.64;99469.56;5131074;27;20024;-71
2021/07/17 10:55:37;;;;;;;5.55;2.92;;;;;;;29.69;41.63;99446.84;5129422;27;20080;-71
2021/07/17 10:58:12;;;;;;;6.85;2.97;;;;;;;30.41;40.73;99462.81;5126440;28;20038;-70
2021/07/17 11:00:51;;;;;;;5.28;2.13;;;;;;;30.44;40.29;99458.13;5129699;28;20037;-71
2021/07/17 11:03:32;;;;;;;2.95;2.35;;;;;;;29.61;42.00;99437.16;5129880;27;20035;-73
2021/07/17 11:06:26;;;;;;;6.07;2.47;;;;;;;30.12;41.01;99461.16;5130307;28;20527;-73
2021/07/17 11:08:52;;;;;;;7.28;2.25;;;;;;;30.77;39.72;99449.59;5146917;27;20027;-72
2021/07/17 11:11:27;;;;;;;3.13;2.00;;;;;;;30.94;38.85;99445.94;5129586;28;20034;-72
2021/07/17 11:13:56;;;;;;;2.15;1.95;;;;;;;30.95;38.93;99442.56;5129213;28;20058;-72
2021/07/17 11:16:48;;;;;;;6.28;2.22;;;;;;;30.10;39.89;99452.25;5129403;27;20051;-73
2021/07/17 11:19:23;;;;;;;3.33;1.97;;;;;;;30.15;39.49;99442.13;5116406;28;20496;-74
2021/07/17 11:21:50;;;;;;;3.00;1.90;;;;;;;29.89;40.13;99442.28;5129378;28;20292;-72
2021/07/17 11:24:16;;;;;;;2.78;1.80;;;;;;;30.82;38.32;99445.16;5144825;27;20065;-73
2021/07/17 11:26:42;;;;;;;4.63;1.60;;;;;;;30.82;37.92;99439.44;5115476;28;20031;-73
2021/07/17 11:29:09;;;;;;;3.20;2.10;;;;;;;31.48;36.29;99437.84;5115955;28;20358;-73
2021/07/17 11:31:42;;;;;;;2.13;1.70;;;;;;;31.88;35.45;99434.88;5133517;27;20050;-71
2021/07/17 11:34:17;;;;;;;3.72;1.70;;;;;;;30.41;37.67;99433.31;5115400;28;20034;-74
2021/07/17 11:36:52;;;;;;;7.55;2.58;;;;;;;31.11;36.96;99429.53;5115383;28;20028;-72
2021/07/17 11:39:20;;;;;;;4.35;1.90;;;;;;;30.82;37.30;99416.44;5132471;27;20081;-74
2021/07/17 11:41:46;;;;;;;5.72;2.17;;;;;;;30.31;37.69;99415.59;5115333;27;20050;-72
2021/07/17 11:44:15;;;;;;;3.40;1.98;;;;;;;29.81;38.36;99398.94;5132725;27;20054;-70
2021/07/17 11:47:00;;;;;;;5.60;2.13;;;;;;;30.55;37.97;99415.09;5116487;28;20492;-73
2021/07/17 11:49:52;;;;;;;2.97;2.10;;;;;;;30.13;39.29;99418.91;5132290;27;20031;-72
2021/07/17 11:52:26;;;;;;;2.33;1.55;;;;;;;30.62;38.10;99402.31;5132291;27;20027;-73
2021/07/17 11:54:57;;;;;;;4.72;1.85;;;;;;;29.62;40.07;99410.09;5115291;28;20020;-72
2021/07/17 11:57:31;;;;;;;2.60;2.05;;;;;;;29.71;41.03;99406.19;5098167;28;20032;-72
2021/07/17 12:00:00;;;;;;;5.03;2.97;;;;;;;28.95;42.44;99398.16;5114673;28;20055;-73
2021/07/17 12:02:29;;;;;;;4.30;2.28;;;;;;;29.09;42.72;99388.63;5114843;28;20023;-72
2021/07/17 12:05:04;;;;;;;4.03;2.15;;;;;;;29.67;40.69;99386.41;5116150;28;20032;-73
2021/07/17 12:07:32;;;;;;;4.20;1.80;;;;;;;29.95;39.41;99391.47;5116300;28;20027;-72
2021/07/17 12:10:00;;;;;;;2.58;1.75;;;;;;;30.59;38.53;99403.38;5116301;28;20035;-74
2021/07/17 12:12:39;;;;;;;5.00;1.73;;;;;;;30.05;40.04;99389.94;5114942;28;20036;-71
2021/07/17 12:15:37;;;;;;;3.67;2.10;;;;;;;29.72;39.95;99397.09;5116189;28;20035;-71
2021/07/17 12:18:10;;;;;;;3.17;1.80;;;;;;;29.80;40.82;99388.78;5114486;28;20039;-73
2021/07/17 12:20:35;;;;;;;2.42;2.15;;;;;;;29.76;41.23;99391.09;5114830;28;20077;-73
2021/07/17 12:23:09;;;;;;;3.97;1.75;;;;;;;29.88;41.55;99392.75;5115307;28;20035;-72
2021/07/17 12:25:34;;;;;;;3.35;2.15;;;;;;;29.85;41.88;99401.59;5114510;28;20024;-73
2021/07/17 12:28:08;;;;;;;2.45;1.63;;;;;;;30.25;41.80;99392.59;5115191;28;20076;-72
2021/07/17 12:30:35;;;;;;;3.20;1.73;;;;;;;30.43;41.58;99391.34;5114345;28;20031;-73
2021/07/17 12:33:16;;;;;;;4.50;1.77;;;;;;;30.52;41.61;99387.41;5097146;28;20032;-72
2021/07/17 12:35:42;;;;;;;9.15;2.25;;;;;;;30.22;42.32;99384.25;5114336;28;20027;-74
2021/07/17 12:38:22;;;;;;;4.25;1.98;;;;;;;29.97;43.59;99383.88;5115050;28;20050;-73
2021/07/17 12:40:52;;;;;;;2.85;1.90;;;;;;;29.92;43.32;99370.31;5114100;28;20076;-71
2021/07/17 12:43:32;;;;;;;5.32;2.00;;;;;;;30.31;41.89;99377.47;5114134;28;20028;-72
2021/07/17 12:45:59;;;;;;;2.75;1.77;;;;;;;30.08;42.61;99377.41;5115284;28;20051;-73